Time;durP1;ratioP1;P1;durP2;ratioP2;P2;SDS_P1;SDS_P2;PMS_P1;PMS_P2;Temp;Humidity;BMP_temperature;BMP_pressure;BME280_temperature;BME280_humidity;BME280_pressure;Samples;Min_cycle;Max_cycle;Signal;HPM_P1;HPM_P2
2021/09/12 00:00:15;;;;;;;;;;;;;;;;;;;;;
2021/09/12 00:03:34;;;;;;;;;;;;;;;;;;;;;
2021/09/12 00:13:55;;;;;;;;;;;;;;;;;;;;;
2021/09/12 00:17:03;;;;;;;7.25;4.32;;;;;;;15.93;74.28;92849.84;5026958;28;20584;-92
2021/09/12 00:20:23;;;;;;;6.03;3.65;;;;;;;16.11;74.43;92879.66;5011854;28;20054;-91
2021/09/12 00:27:46;;;;;;;6.72;4.00;;;;;;;15.84;74.58;92856.97;5022062;28;20050;-91
2021/09/12 00:34:13;;;;;;;;;;;;;;;;;;;;;
2021/09/12 00:37:50;;;;;;;;;;;;;;;;;;;;;
2021/09/12 00:41:12;;;;;;;;;;;;;;;;;;;;;
2021/09/12 00:44:50;;;;;;;;;;;;;;;;;;;;;
2021/09/12 00:48:06;;;;;;;;;;;;;;;;;;;;;
2021/09/12 00:54:09;;;;;;;7.72;4.22;;;;;;;15.54;74.46;92827.72;5000048;28;20168;-92
2021/09/12 01:01:25;;;;;;;;;;;;;;;;;;;;;
2021/09/12 01:04:36;;;;;;;;;;;;;;;;;;;;;
2021/09/12 01:07:19;;;;;;;7.00;3.88;;;;;;;15.95;75.18;92868.78;4978968;28;20050;-93
2021/09/12 01:18:03;;;;;;;;;;;;;;;;;;;;;
2021/09/12 01:20:49;;;;;;;7.03;3.85;;;;;;;15.91;74.78;92849.38;4989093;28;20527;-91
2021/09/12 01:23:51;;;;;;;;;;;;;;;;;;;;;
2021/09/12 01:30:54;;;;;;;6.65;4.22;;;;;;;15.72;74.29;92822.50;5024699;28;20503;-91
2021/09/12 01:33:50;;;;;;;5.72;3.65;;;;;;;16.01;74.39;92866.78;5032224;28;20047;-93
2021/09/12 01:36:58;;;;;;;6.35;3.55;;;;;;;15.71;74.34;92815.66;5029443;28;20046;-92
2021/09/12 01:40:43;;;;;;;;;;;;;;;;;;;;;
2021/09/12 01:54:38;;;;;;;6.95;3.58;;;;;;;15.52;74.49;92800.88;4984011;28;20042;-92
2021/09/12 01:57:47;;;;;;;5.57;3.67;;;;;;;15.83;74.26;92860.72;4974630;28;20065;-91
2021/09/12 02:04:54;;;;;;;;;;;;;;;;;;;;;
2021/09/12 02:08:07;;;;;;;5.70;3.50;;;;;;;15.53;73.97;92812.97;5031267;28;20049;-94
2021/09/12 02:15:06;;;;;;;;;;;;;;;;;;;;;
2021/09/12 02:21:59;;;;;;;;;;;;;;;;;;;;;
2021/09/12 02:25:16;;;;;;;6.30;3.42;;;;;;;15.52;73.96;92803.50;5035523;28;20050;-92
2021/09/12 02:28:23;;;;;;;7.07;3.90;;;;;;;15.55;74.12;92800.25;5028015;28;20037;-91
2021/09/12 02:31:42;;;;;;;5.85;3.50;;;;;;;15.91;74.62;92852.00;5031851;28;20046;-92
2021/09/12 02:35:14;;;;;;;5.97;3.92;;;;;;;15.63;74.56;92809.28;5017315;28;20156;-92
2021/09/12 02:38:15;;;;;;;5.17;3.10;;;;;;;15.86;74.68;92843.47;5013020;28;20046;-92
2021/09/12 02:41:53;;;;;;;5.95;3.90;;;;;;;15.67;74.51;92809.41;5014478;28;20042;-93
2021/09/12 02:45:16;;;;;;;7.93;4.00;;;;;;;15.54;74.47;92796.06;5032034;28;20407;-92
2021/09/12 02:48:47;;;;;;;;;;;;;;;;;;;;;
2021/09/12 02:52:35;;;;;;;;;;;;;;;;;;;;;
2021/09/12 03:02:53;;;;;;;;;;;;;;;;;;;;;
2021/09/12 03:09:17;;;;;;;6.45;3.85;;;;;;;15.75;75.24;92843.00;4983745;28;20120;-91
2021/09/12 03:12:42;;;;;;;6.13;4.05;;;;;;;15.50;74.66;92804.91;5013533;28;20033;-91
2021/09/12 03:15:30;;;;;;;;;;;;;;;;;;;;;
2021/09/12 03:18:37;;;;;;;5.57;3.67;;;;;;;15.44;75.23;92800.84;5013866;28;20142;-91
2021/09/12 03:32:35;;;;;;;8.10;4.10;;;;;;;15.14;75.76;92798.00;5024469;28;20041;-91
2021/09/12 03:35:35;;;;;;;9.32;4.25;;;;;;;15.17;75.74;92808.69;5034352;28;20037;-93
2021/09/12 03:38:41;;;;;;;6.82;4.32;;;;;;;14.85;75.67;92772.16;5008089;28;20414;-92
2021/09/12 03:48:33;;;;;;;6.90;4.10;;;;;;;15.06;76.67;92817.97;5033882;28;20172;-90
2021/09/12 03:52:12;;;;;;;;;;;;;;;;;;;;;
2021/09/12 03:55:51;;;;;;;7.18;3.95;;;;;;;14.80;76.96;92791.53;5031905;28;20138;-93
2021/09/12 03:59:01;;;;;;;;;;;;;;;;;;;;;
2021/09/12 04:02:32;;;;;;;;;;;;;;;;;;;;;
2021/09/12 04:05:49;;;;;;;5.97;3.58;;;;;;;14.77;77.97;92800.81;5011782;28;20104;-92
2021/09/12 04:09:21;;;;;;;6.78;3.33;;;;;;;14.83;77.89;92813.84;5022351;28;20053;-91
2021/09/12 04:12:28;;;;;;;6.32;3.22;;;;;;;14.79;78.00;92818.94;5027884;28;20045;-92
2021/09/12 04:15:26;;;;;;;6.70;4.05;;;;;;;14.48;78.51;92777.56;5012986;28;20107;-92
2021/09/12 04:25:38;;;;;;;7.50;3.72;;;;;;;14.40;78.64;92770.41;5012378;28;20038;-92
2021/09/12 04:28:48;;;;;;;;;;;;;;;;;;;;;
2021/09/12 04:31:51;;;;;;;;;;;;;;;;;;;;;
2021/09/12 04:34:48;;;;;;;;;;;;;;;;;;;;;
2021/09/12 04:41:34;;;;;;;;;;;;;;;;;;;;;
2021/09/12 04:44:40;;;;;;;;;;;;;;;;;;;;;
2021/09/12 04:47:30;;;;;;;5.53;3.45;;;;;;;14.27;78.44;92787.81;5032321;28;20072;-91
2021/09/12 04:51:26;;;;;;;7.15;4.25;;;;;;;14.21;78.25;92780.34;5025339;28;20041;-92
2021/09/12 04:57:50;;;;;;;;;;;;;;;;;;;;;
2021/09/12 05:01:26;;;;;;;;;;;;;;;;;;;;;
2021/09/12 05:12:27;;;;;;;;;;;;;;;;;;;;;
2021/09/12 05:19:13;;;;;;;4.93;3.60;;;;;;;14.18;78.34;92773.06;5014756;28;20053;-92
2021/09/12 05:22:40;;;;;;;6.03;3.50;;;;;;;14.54;78.25;92820.34;5034794;28;20033;-93
2021/09/12 05:25:37;;;;;;;6.72;4.60;;;;;;;14.41;77.87;92789.59;5036229;28;20053;-91
2021/09/12 05:28:42;;;;;;;;;;;;;;;;;;;;;
2021/09/12 05:31:41;;;;;;;7.25;3.80;;;;;;;14.61;77.51;92794.38;5030245;28;20532;-92
2021/09/12 05:34:30;;;;;;;8.88;3.78;;;;;;;14.71;77.12;92791.50;5012565;28;20049;-96
2021/09/12 05:37:11;;;;;;;6.43;3.53;;;;;;;15.08;76.70;92823.72;5022636;28;20040;-95
2021/09/12 05:40:10;;;;;;;5.80;3.75;;;;;;;15.05;76.23;92803.25;5024894;28;20056;-94
2021/09/12 05:43:32;;;;;;;6.47;3.60;;;;;;;15.29;75.57;92809.97;5027889;28;20056;-95
2021/09/12 05:46:36;;;;;;;6.32;3.47;;;;;;;15.39;75.36;92793.84;5008675;28;20129;-95
2021/09/12 05:49:14;;;;;;;4.45;3.00;;;;;;;15.88;74.86;92857.91;4999486;28;20586;-93
2021/09/12 05:52:16;;;;;;;;;;;;;;;;;;;;;
2021/09/12 05:55:16;;;;;;;5.55;3.08;;;;;;;16.36;72.66;92806.00;5022236;28;20053;-92
2021/09/12 06:01:42;;;;;;;4.85;2.72;;;;;;;20.71;58.90;92824.94;5020718;28;20045;-93
2021/09/12 06:04:55;;;;;;;5.43;2.75;;;;;;;22.10;54.32;92816.00;5012587;28;20038;-93
2021/09/12 06:08:04;;;;;;;;;;;;;;;;;;;;;
2021/09/12 06:11:16;;;;;;;5.22;3.25;;;;;;;23.92;49.16;92813.06;4999549;28;20042;-93
2021/09/12 06:17:35;;;;;;;5.75;3.38;;;;;;;25.83;45.20;92840.66;5035160;28;20060;-92
2021/09/12 06:20:49;;;;;;;5.25;3.35;;;;;;;26.43;43.65;92819.91;5033196;28;20080;-93
2021/09/12 06:23:48;;;;;;;5.63;3.72;;;;;;;26.78;42.15;92793.22;5030391;28;20096;-94
2021/09/12 06:26:46;;;;;;;5.47;3.63;;;;;;;27.76;41.18;92832.47;5012358;28;20042;-92
2021/09/12 06:29:55;;;;;;;;;;;;;;;;;;;;;
2021/09/12 06:32:54;;;;;;;;;;;;;;;;;;;;;
2021/09/12 06:36:22;;;;;;;;;;;;;;;;;;;;;
2021/09/12 06:39:20;;;;;;;;;;;;;;;;;;;;;
2021/09/12 06:41:59;;;;;;;5.43;3.63;;;;;;;29.76;36.21;92784.22;5019489;28;20373;-95
2021/09/12 06:45:30;;;;;;;5.50;3.42;;;;;;;29.57;36.91;92787.44;5026826;28;20061;-93
2021/09/12 06:48:13;;;;;;;5.68;3.80;;;;;;;30.37;36.09;92786.28;5015290;28;20041;-90
2021/09/12 06:51:02;;;;;;;;;;;;;;;;;;;;;
2021/09/12 06:54:03;;;;;;;8.23;3.67;;;;;;;30.82;35.36;92815.06;5030932;28;20045;-90
2021/09/12 06:56:41;;;;;;;6.15;3.58;;;;;;;29.91;36.29;92792.94;5030039;28;20030;-90
2021/09/12 06:59:28;;;;;;;5.50;3.42;;;;;;;29.10;39.56;92839.00;5010919;28;20410;-90
2021/09/12 07:02:30;;;;;;;;;;;;;;;;;;;;;
2021/09/12 07:05:58;;;;;;;;;;;;;;;;;;;;;
2021/09/12 07:12:23;;;;;;;5.85;3.70;;;;;;;29.72;37.41;92791.56;5026063;28;20053;-93
2021/09/12 07:15:42;;;;;;;;;;;;;;;;;;;;;
2021/09/12 07:18:33;;;;;;;;;;;;;;;;;;;;;
2021/09/12 07:21:59;;;;;;;;;;;;;;;;;;;;;
2021/09/12 07:25:23;;;;;;;5.75;3.60;;;;;;;24.35;50.82;92820.88;5040364;28;20120;-94
2021/09/12 07:28:36;;;;;;;4.53;3.22;;;;;;;23.49;54.02;92804.41;5029179;28;20099;-91
2021/09/12 07:35:06;;;;;;;;;;;;;;;;;;;;;
2021/09/12 07:38:30;;;;;;;5.13;3.13;;;;;;;21.95;58.85;92809.59;5014670;28;20053;-94
2021/09/12 07:41:17;;;;;;;;;;;;;;;;;;;;;
2021/09/12 07:44:20;;;;;;;6.55;4.07;;;;;;;21.55;60.08;92826.66;5011678;28;20041;-93
2021/09/12 07:50:57;;;;;;;6.65;4.07;;;;;;;21.23;60.97;92829.28;5034306;28;20049;-93
2021/09/12 07:53:46;;;;;;;6.25;4.30;;;;;;;21.51;60.61;92815.13;5017384;28;20058;-92
2021/09/12 07:56:15;;;;;;;7.03;3.85;;;;;;;21.94;60.51;92872.03;5025025;22;20081;-78
2021/09/12 07:58:40;;;;;;;5.78;3.30;;;;;;;21.73;61.79;92866.97;4992019;28;20046;-78
2021/09/12 08:01:06;;;;;;;5.07;2.70;;;;;;;21.51;63.20;92877.16;4990665;28;20185;-78
2021/09/12 08:03:32;;;;;;;6.53;4.10;;;;;;;21.63;61.70;92870.97;4991435;28;20614;-77
2021/09/12 08:05:58;;;;;;;6.25;3.92;;;;;;;22.06;61.41;92871.13;4992115;28;20038;-77
2021/09/12 08:08:24;;;;;;;5.40;3.45;;;;;;;21.73;61.68;92875.78;4990692;28;20034;-78
2021/09/12 08:10:50;;;;;;;6.72;3.80;;;;;;;21.65;61.28;92871.38;4964493;28;20484;-77
2021/09/12 08:13:16;;;;;;;4.95;3.47;;;;;;;21.76;63.06;92871.63;4987412;28;20044;-77
2021/09/12 08:15:42;;;;;;;6.72;3.80;;;;;;;21.48;62.66;92883.19;4990464;28;20049;-77
2021/09/12 08:18:07;;;;;;;6.38;3.08;;;;;;;20.93;64.18;92874.94;4990787;28;20045;-78
2021/09/12 08:20:33;;;;;;;5.65;3.80;;;;;;;21.02;63.81;92882.78;4990134;28;20419;-78
2021/09/12 08:22:59;;;;;;;7.25;4.05;;;;;;;21.41;62.57;92878.47;4992908;28;20034;-78
2021/09/12 08:25:25;;;;;;;8.55;3.85;;;;;;;21.53;61.33;92879.50;5010459;28;20439;-78
2021/09/12 08:27:51;;;;;;;5.13;3.28;;;;;;;21.47;62.59;92886.19;4998100;28;20767;-77
2021/09/12 08:30:16;;;;;;;9.68;3.85;;;;;;;21.91;61.04;92884.16;4998513;28;20034;-79
2021/09/12 08:32:43;;;;;;;5.50;3.42;;;;;;;22.01;60.27;92883.63;4979206;28;20448;-78
2021/09/12 08:35:09;;;;;;;5.70;3.45;;;;;;;21.12;62.78;92887.59;4989977;28;20042;-79
2021/09/12 08:37:35;;;;;;;5.65;3.47;;;;;;;21.80;61.33;92889.25;4987524;28;20030;-80
2021/09/12 08:40:02;;;;;;;6.97;3.88;;;;;;;21.92;62.00;92895.59;4993955;28;20121;-81
2021/09/12 08:42:29;;;;;;;5.82;3.35;;;;;;;21.62;62.82;92888.06;4994131;28;20046;-80
2021/09/12 08:44:55;;;;;;;8.70;3.97;;;;;;;21.63;62.55;92879.72;4988233;28;20548;-81
2021/09/12 08:53:01;;;;;;;6.05;3.47;;;;;;;21.85;60.51;92858.13;5163610;23;20060;-90
2021/09/12 08:55:29;;;;;;;5.63;3.35;;;;;;;21.23;61.86;92860.47;5039645;28;20045;-91
2021/09/12 08:57:55;;;;;;;5.22;3.15;;;;;;;22.15;59.98;92869.03;5027307;28;20095;-91
2021/09/12 09:00:27;;;;;;;6.30;3.75;;;;;;;22.33;59.17;92888.13;5014910;28;20036;-92
2021/09/12 09:03:05;;;;;;;5.45;3.67;;;;;;;21.40;61.67;92879.56;5027504;28;20394;-91
2021/09/12 09:05:35;;;;;;;5.28;3.30;;;;;;;21.32;61.78;92901.00;5013750;28;20063;-92
2021/09/12 09:08:14;;;;;;;7.53;3.75;;;;;;;21.82;60.80;92871.03;5024520;28;20039;-92
2021/09/12 09:10:46;;;;;;;5.15;3.17;;;;;;;21.52;60.81;92856.63;5026322;28;20041;-92
2021/09/12 09:13:30;;;;;;;5.43;3.30;;;;;;;22.09;59.29;92881.88;5030445;28;20076;-92
2021/09/12 09:16:00;;;;;;;6.90;3.40;;;;;;;22.36;56.51;92888.19;5017010;28;20128;-93
2021/09/12 09:18:38;;;;;;;4.75;3.03;;;;;;;22.47;58.54;92896.41;5001496;28;20033;-92
2021/09/12 09:21:25;;;;;;;5.07;2.92;;;;;;;22.06;59.64;92898.56;5040344;28;20049;-90
2021/09/12 09:24:12;;;;;;;5.22;3.13;;;;;;;22.53;57.70;92892.34;5029671;28;20065;-91
2021/09/12 09:28:21;;;;;;;;;;;;;;;;;;;;;
2021/09/12 09:39:47;;;;;;;;;;;;;;;;;;;;;
2021/09/12 09:43:26;;;;;;;7.07;3.50;;;;;;;22.29;57.79;92890.72;4948345;29;20050;-91
2021/09/12 09:51:13;;;;;;;5.28;3.45;;;;;;;22.47;57.63;92887.63;4919984;29;20036;-92
2021/09/12 09:54:03;;;;;;;;;;;;;;;;;;;;;
2021/09/12 09:57:46;;;;;;;5.95;3.15;;;;;;;22.52;55.71;92874.78;5035130;28;20052;-91
2021/09/12 10:00:51;;;;;;;6.95;3.92;;;;;;;22.81;52.45;92873.44;5029857;28;20793;-92
2021/09/12 10:03:38;;;;;;;7.60;3.72;;;;;;;22.73;54.33;92863.75;5019355;28;20033;-94
2021/09/12 10:06:46;;;;;;;5.32;3.25;;;;;;;22.85;54.67;92865.50;5027382;28;20048;-93
2021/09/12 10:09:22;;;;;;;7.72;3.90;;;;;;;22.52;55.59;92852.69;5036044;28;20040;-92
2021/09/12 10:11:52;;;;;;;5.63;3.47;;;;;;;22.99;53.92;92889.81;5024298;28;20040;-92
2021/09/12 10:14:47;;;;;;;6.72;4.05;;;;;;;22.72;55.26;92888.13;5044603;28;20041;-92
2021/09/12 10:17:14;;;;;;;7.60;3.80;;;;;;;22.50;55.11;92866.38;5031687;28;20041;-93
2021/09/12 10:19:45;;;;;;;5.68;3.50;;;;;;;22.80;55.51;92863.88;5016224;28;20036;-94
2021/09/12 10:22:16;;;;;;;5.97;3.47;;;;;;;22.76;54.48;92868.38;5024116;28;20040;-93
2021/09/12 10:25:00;;;;;;;5.32;2.80;;;;;;;22.53;55.88;92886.25;5025115;28;20033;-93
2021/09/12 10:27:43;;;;;;;6.18;3.50;;;;;;;22.81;55.32;92854.78;5020978;28;20030;-93
2021/09/12 10:30:38;;;;;;;6.00;3.72;;;;;;;23.18;53.52;92883.66;5026812;28;20041;-93
2021/09/12 10:36:36;;;;;;;5.07;3.22;;;;;;;22.87;52.40;92879.25;5024500;28;20049;-94
2021/09/12 10:39:47;;;;;;;5.28;3.15;;;;;;;22.65;53.35;92873.53;5029271;28;20037;-93
2021/09/12 10:47:59;;;;;;;;;;;;;;;;;;;;;
2021/09/12 10:50:36;;;;;;;4.72;2.70;;;;;;;22.78;51.72;92873.38;4967381;28;20511;-92
2021/09/12 10:53:05;;;;;;;6.72;4.05;;;;;;;22.91;51.22;92837.41;4946203;28;20054;-93
2021/09/12 10:56:39;;;;;;;;;;;;;;;;;;;;;
2021/09/12 10:59:28;;;;;;;6.30;3.85;;;;;;;23.44;50.38;92832.22;4971715;28;20542;-93
2021/09/12 11:02:43;;;;;;;6.82;4.07;;;;;;;23.30;51.57;92825.88;4992622;28;20087;-93
2021/09/12 11:05:24;;;;;;;7.63;3.83;;;;;;;23.55;49.17;92827.00;5040351;28;20035;-93
2021/09/12 11:20:01;;;;;;;;;;;;;;;;;;;;;
2021/09/12 11:23:29;;;;;;;13.35;7.70;;;;;;;23.82;47.96;92819.81;4896004;29;20289;-94
2021/09/12 11:26:40;;;;;;;16.55;8.18;;;;;;;24.04;47.95;92825.44;4871044;29;20131;-93
2021/09/12 11:29:28;;;;;;;8.57;4.80;;;;;;;24.40;46.11;92847.28;4888583;29;20084;-92
2021/09/12 11:32:01;;;;;;;6.55;3.85;;;;;;;24.00;46.86;92813.94;4914820;29;20043;-92
2021/09/12 11:34:29;;;;;;;8.52;4.97;;;;;;;24.39;47.55;92827.81;4977821;28;20172;-91
2021/09/12 11:36:58;;;;;;;8.43;5.13;;;;;;;24.13;47.70;92825.94;4996392;28;20088;-92
2021/09/12 11:39:30;;;;;;;6.38;4.05;;;;;;;24.81;48.14;92840.13;5002313;28;20041;-92
2021/09/12 11:41:58;;;;;;;6.70;3.67;;;;;;;24.59;46.79;92839.16;5010896;28;20127;-92
2021/09/12 11:44:31;;;;;;;9.35;4.22;;;;;;;24.24;48.81;92818.81;5012920;28;20048;-92
2021/09/12 11:46:57;;;;;;;7.38;4.50;;;;;;;24.50;48.79;92814.59;5005321;28;20037;-92
2021/09/12 11:49:22;;;;;;;6.28;4.05;;;;;;;23.89;48.50;92819.16;5003053;28;20149;-92
2021/09/12 11:51:49;;;;;;;8.68;5.20;;;;;;;24.01;46.69;92804.78;5011336;28;20067;-91
2021/09/12 11:54:24;;;;;;;6.60;4.22;;;;;;;24.46;47.74;92832.47;5006028;28;20037;-91
2021/09/12 11:57:07;;;;;;;7.60;4.47;;;;;;;24.30;46.28;92795.22;4995947;28;20494;-91
2021/09/12 11:59:43;;;;;;;6.03;4.22;;;;;;;24.37;46.50;92811.34;5004840;28;20076;-92
2021/09/12 12:02:11;;;;;;;7.20;4.65;;;;;;;24.55;45.74;92794.75;5018541;28;20057;-91
2021/09/12 12:04:39;;;;;;;6.78;4.40;;;;;;;24.21;40.70;92810.78;5013368;28;20021;-91
2021/09/12 12:07:05;;;;;;;7.18;4.38;;;;;;;23.96;45.67;92800.53;5018554;28;20046;-92
2021/09/12 12:09:40;;;;;;;7.60;4.65;;;;;;;24.25;44.92;92814.25;5022561;28;20522;-92
2021/09/12 12:12:18;;;;;;;6.22;4.30;;;;;;;24.34;44.75;92811.28;5015076;28;21243;-91
2021/09/12 12:14:52;;;;;;;7.78;3.70;;;;;;;24.13;40.82;92791.19;5032855;28;20040;-92
2021/09/12 12:17:23;;;;;;;5.55;4.05;;;;;;;24.65;42.69;92792.19;5045421;28;20093;-92
2021/09/12 12:19:50;;;;;;;8.02;4.50;;;;;;;23.96;43.77;92791.72;5030507;28;20048;-92
2021/09/12 12:22:18;;;;;;;6.00;3.85;;;;;;;24.04;45.33;92788.00;5024799;28;20021;-91
2021/09/12 12:24:47;;;;;;;9.55;4.63;;;;;;;24.46;42.81;92797.69;5041895;28;20583;-91
2021/09/12 12:27:16;;;;;;;6.13;3.83;;;;;;;24.97;44.33;92790.94;5032463;28;20031;-91
2021/09/12 12:29:56;;;;;;;7.63;4.63;;;;;;;24.93;45.27;92794.38;5043530;28;20132;-91
2021/09/12 12:32:25;;;;;;;7.35;4.78;;;;;;;24.81;46.15;92775.13;5020474;28;20041;-92
2021/09/12 12:35:12;;;;;;;6.97;4.07;;;;;;;25.28;44.83;92797.75;5014029;28;20037;-92
2021/09/12 12:37:43;;;;;;;6.97;4.25;;;;;;;24.90;45.46;92794.34;5029692;28;20033;-93
2021/09/12 12:40:27;;;;;;;6.90;4.40;;;;;;;24.78;45.95;92805.31;5013770;28;20041;-92
2021/09/12 12:43:12;;;;;;;6.50;3.95;;;;;;;25.09;44.57;92802.16;5015534;28;20029;-91
2021/09/12 12:45:38;;;;;;;6.90;4.50;;;;;;;24.49;44.83;92768.31;5029029;28;20038;-92
2021/09/12 12:48:03;;;;;;;5.97;4.07;;;;;;;25.20;44.52;92790.81;5029692;28;20078;-92
2021/09/12 12:50:39;;;;;;;6.05;3.72;;;;;;;25.09;44.99;92775.38;5013257;28;20064;-92
2021/09/12 12:53:44;;;;;;;6.50;3.92;;;;;;;25.04;44.44;92766.91;5012517;28;20052;-92
2021/09/12 12:56:14;;;;;;;6.22;3.92;;;;;;;25.02;43.00;92759.25;5030452;28;20545;-92
2021/09/12 12:58:40;;;;;;;7.20;4.53;;;;;;;24.93;42.80;92761.47;5032191;28;20062;-91
2021/09/12 13:01:07;;;;;;;6.22;3.55;;;;;;;25.00;42.80;92766.13;5027263;28;20539;-92
2021/09/12 13:03:34;;;;;;;6.68;3.90;;;;;;;24.97;43.73;92750.78;5021994;28;20045;-92
2021/09/12 13:06:04;;;;;;;7.13;4.50;;;;;;;24.49;44.05;92754.94;5013007;28;20478;-92
2021/09/12 13:08:33;;;;;;;8.20;5.05;;;;;;;24.17;42.34;92740.44;5016493;28;20072;-92
2021/09/12 13:11:02;;;;;;;6.78;4.25;;;;;;;24.54;41.43;92742.38;5029625;28;20029;-92
2021/09/12 13:13:28;;;;;;;5.95;3.72;;;;;;;24.61;40.79;92747.78;5031570;28;20507;-91
2021/09/12 13:15:54;;;;;;;6.03;3.53;;;;;;;24.42;39.56;92730.75;5015663;28;20033;-93
2021/09/12 13:18:21;;;;;;;6.68;4.15;;;;;;;24.50;40.12;92745.03;5028325;28;20052;-92
2021/09/12 13:20:51;;;;;;;5.95;3.88;;;;;;;24.29;39.03;92732.13;5012080;28;20038;-92
2021/09/12 13:23:18;;;;;;;8.55;3.65;;;;;;;24.69;41.47;92747.50;5011688;28;20065;-93
2021/09/12 13:25:47;;;;;;;6.13;3.35;;;;;;;25.03;36.89;92739.38;5021394;28;20118;-92
2021/09/12 13:28:15;;;;;;;4.47;2.95;;;;;;;24.50;38.38;92729.72;5032570;28;20037;-91
2021/09/12 13:30:42;;;;;;;7.50;3.13;;;;;;;24.93;36.02;92748.09;5028473;28;20034;-92
2021/09/12 13:33:11;;;;;;;6.72;3.35;;;;;;;25.01;35.29;92747.00;5025364;28;20025;-92
2021/09/12 13:35:40;;;;;;;5.50;3.40;;;;;;;25.20;33.46;92745.28;5032091;28;20099;-92
2021/09/12 13:38:06;;;;;;;5.57;3.50;;;;;;;25.28;36.50;92734.22;5030204;28;20064;-92
2021/09/12 13:40:39;;;;;;;5.88;3.92;;;;;;;25.29;37.05;92730.41;5017574;28;20470;-92
2021/09/12 13:43:05;;;;;;;5.65;3.63;;;;;;;25.00;37.50;92712.56;5013179;28;20044;-93
2021/09/12 13:45:31;;;;;;;5.43;3.47;;;;;;;25.14;36.22;92716.13;5052548;28;20468;-91
2021/09/12 13:47:59;;;;;;;8.32;3.75;;;;;;;24.81;38.71;92717.00;5032121;28;20029;-92
2021/09/12 13:50:28;;;;;;;5.60;3.50;;;;;;;24.79;38.47;92726.53;5026649;28;20044;-92
2021/09/12 13:52:59;;;;;;;7.13;4.07;;;;;;;24.94;39.26;92720.94;5046620;28;20041;-92
2021/09/12 13:55:25;;;;;;;6.05;3.85;;;;;;;24.30;40.33;92731.78;5000144;28;20045;-92
2021/09/12 13:57:53;;;;;;;5.18;3.28;;;;;;;24.27;39.04;92716.47;5005620;28;20032;-94
2021/09/12 14:00:19;;;;;;;8.88;4.13;;;;;;;24.30;39.19;92718.41;5019575;28;20042;-92
2021/09/12 14:02:48;;;;;;;5.38;3.45;;;;;;;24.78;36.89;92720.41;5032221;28;20021;-92
2021/09/12 14:05:17;;;;;;;4.13;2.60;;;;;;;24.51;35.09;92730.50;5027984;28;20116;-92
2021/09/12 14:07:47;;;;;;;4.93;2.88;;;;;;;24.82;36.64;92725.81;5015993;28;20041;-93
2021/09/12 14:10:20;;;;;;;7.85;4.13;;;;;;;24.80;38.58;92722.72;5007032;28;20051;-92
2021/09/12 14:12:48;;;;;;;8.27;3.88;;;;;;;24.33;38.60;92700.09;5042399;28;20029;-93
2021/09/12 14:15:14;;;;;;;5.95;3.55;;;;;;;24.31;38.94;92703.13;5035746;28;20032;-93
2021/09/12 14:17:40;;;;;;;5.60;3.45;;;;;;;24.71;38.27;92721.13;5032039;28;20577;-92
2021/09/12 14:20:09;;;;;;;6.97;3.67;;;;;;;24.51;39.66;92717.13;5031116;28;20152;-92
2021/09/12 14:22:35;;;;;;;5.72;3.30;;;;;;;24.71;39.23;92723.03;5003583;28;20042;-93
2021/09/12 14:25:04;;;;;;;5.35;3.70;;;;;;;24.62;39.45;92723.34;5027152;28;20029;-91
2021/09/12 14:27:30;;;;;;;6.82;3.70;;;;;;;24.35;39.31;92719.22;5031806;28;20531;-93
2021/09/12 14:30:01;;;;;;;5.43;3.15;;;;;;;24.43;38.01;92712.78;5034207;28;20029;-92
2021/09/12 14:32:30;;;;;;;5.68;3.13;;;;;;;24.54;39.61;92718.28;5046261;28;20041;-91
2021/09/12 14:34:56;;;;;;;7.05;4.75;;;;;;;24.31;44.84;92701.22;5029435;28;20042;-92
2021/09/12 14:37:24;;;;;;;8.38;4.13;;;;;;;24.86;41.34;92718.59;5014941;28;20083;-92
2021/09/12 14:39:52;;;;;;;7.10;4.03;;;;;;;24.48;42.89;92731.25;5042463;28;20040;-93
2021/09/12 14:42:22;;;;;;;5.88;3.75;;;;;;;24.57;43.05;92699.59;5031280;28;20025;-92
2021/09/12 14:44:53;;;;;;;4.80;3.22;;;;;;;24.38;39.59;92697.06;5015877;28;20048;-92
2021/09/12 14:47:28;;;;;;;6.38;4.40;;;;;;;24.47;41.12;92697.53;5020056;28;20037;-92
2021/09/12 14:50:14;;;;;;;6.03;3.58;;;;;;;24.77;41.96;92731.47;5016746;28;20045;-92
2021/09/12 14:52:45;;;;;;;9.10;4.60;;;;;;;24.90;41.42;92692.59;5013620;28;20053;-92
2021/09/12 14:55:14;;;;;;;7.90;4.63;;;;;;;25.25;40.72;92726.94;5014887;28;20037;-92
2021/09/12 14:57:44;;;;;;;6.65;4.40;;;;;;;24.77;42.33;92697.47;5023008;28;20396;-93
2021/09/12 15:00:13;;;;;;;7.30;4.63;;;;;;;24.28;43.82;92687.81;5031248;28;20044;-92
2021/09/12 15:02:40;;;;;;;7.18;4.38;;;;;;;24.60;42.43;92690.06;5031809;28;20029;-92
2021/09/12 15:05:11;;;;;;;6.30;4.20;;;;;;;24.77;44.16;92710.88;5015412;28;20043;-93
2021/09/12 15:07:49;;;;;;;;;;;;;;;;;;;;;
2021/09/12 15:10:20;;;;;;;6.70;4.70;;;;;;;24.78;42.28;92722.34;5030947;28;20037;-92
2021/09/12 15:12:51;;;;;;;9.23;5.03;;;;;;;24.88;43.46;92708.25;5031025;28;20038;-92
2021/09/12 15:15:17;;;;;;;13.43;5.15;;;;;;;24.83;42.93;92687.19;5033248;28;20035;-92
2021/09/12 15:17:45;;;;;;;7.75;4.85;;;;;;;25.25;41.47;92686.00;5029730;28;20478;-93
2021/09/12 15:20:17;;;;;;;8.32;4.70;;;;;;;24.69;44.69;92688.59;5026303;28;20034;-91
2021/09/12 15:22:43;;;;;;;7.95;4.88;;;;;;;25.17;44.78;92706.56;5026274;28;20542;-92
2021/09/12 15:25:12;;;;;;;9.02;4.88;;;;;;;25.31;44.06;92687.94;5018412;28;20116;-92
2021/09/12 15:27:43;;;;;;;8.50;5.17;;;;;;;25.51;44.01;92691.13;5047142;28;20069;-93
2021/09/12 15:30:09;;;;;;;7.53;4.63;;;;;;;25.49;43.93;92685.38;5030070;28;20303;-92
2021/09/12 15:32:38;;;;;;;9.50;4.93;;;;;;;25.33;43.92;92709.00;5016734;28;20059;-90
2021/09/12 15:35:07;;;;;;;8.52;4.85;;;;;;;25.04;43.81;92687.34;5016963;28;20049;-93
2021/09/12 15:37:33;;;;;;;7.50;4.32;;;;;;;24.97;43.96;92700.69;5029419;28;20490;-92
2021/09/12 15:40:05;;;;;;;8.98;5.05;;;;;;;25.09;45.70;92700.41;5014290;28;20040;-92
2021/09/12 15:42:34;;;;;;;8.35;5.53;;;;;;;25.16;44.94;92688.97;5015761;28;20037;-93
2021/09/12 15:45:14;;;;;;;10.18;6.20;;;;;;;25.12;45.62;92686.25;5029241;28;20482;-93
2021/09/12 15:47:45;;;;;;;7.38;4.60;;;;;;;25.39;45.39;92702.16;5017622;28;20171;-92
2021/09/12 15:50:16;;;;;;;7.25;4.97;;;;;;;25.48;45.17;92693.78;5013438;28;20046;-92
2021/09/12 15:52:47;;;;;;;9.02;5.53;;;;;;;25.66;45.21;92694.63;5012486;28;20057;-92
2021/09/12 15:55:24;;;;;;;10.82;5.70;;;;;;;25.32;45.04;92681.44;5031092;28;20037;-92
2021/09/12 15:57:52;;;;;;;8.38;5.43;;;;;;;25.39;45.70;92679.94;5015977;28;20116;-92
2021/09/12 16:00:21;;;;;;;8.10;5.47;;;;;;;25.17;45.94;92681.69;5030134;28;20071;-92
2021/09/12 16:02:58;;;;;;;8.13;5.10;;;;;;;25.10;45.63;92675.13;4996888;28;20037;-92
2021/09/12 16:05:24;;;;;;;9.68;5.65;;;;;;;24.97;46.79;92684.63;5030857;28;20493;-92
2021/09/12 16:07:50;;;;;;;7.53;5.13;;;;;;;24.82;45.95;92670.38;5047541;28;20090;-91
2021/09/12 16:10:16;;;;;;;10.15;5.55;;;;;;;24.90;46.93;92673.84;5034247;28;20032;-92
2021/09/12 16:12:41;;;;;;;12.48;5.70;;;;;;;24.75;47.77;92677.56;5033400;28;20037;-92
2021/09/12 16:15:08;;;;;;;8.60;5.60;;;;;;;24.77;46.38;92684.09;5022646;28;20522;-91
2021/09/12 16:17:51;;;;;;;10.88;5.63;;;;;;;24.85;47.72;92698.28;5019131;28;20422;-95
2021/09/12 16:20:20;;;;;;;8.93;5.03;;;;;;;24.60;47.65;92674.75;5025469;28;20029;-94
2021/09/12 16:22:50;;;;;;;8.70;5.53;;;;;;;24.56;47.43;92663.25;5046355;28;20090;-94
2021/09/12 16:25:16;;;;;;;8.60;5.68;;;;;;;24.44;47.72;92666.94;5031636;28;20048;-95
2021/09/12 16:27:41;;;;;;;8.88;5.50;;;;;;;24.30;48.79;92667.59;5030789;28;20038;-93
2021/09/12 16:30:10;;;;;;;10.45;5.38;;;;;;;24.11;49.05;92681.13;5024164;28;20037;-93
2021/09/12 16:32:54;;;;;;;7.90;5.00;;;;;;;23.73;51.05;92666.94;5031132;28;20116;-94
2021/09/12 16:35:31;;;;;;;7.82;4.97;;;;;;;23.65;52.21;92697.38;5011651;28;20109;-94
2021/09/12 16:38:11;;;;;;;8.30;5.35;;;;;;;23.25;52.92;92672.03;5047539;28;20041;-94
2021/09/12 16:40:42;;;;;;;8.35;5.20;;;;;;;22.99;54.10;92662.94;5029724;28;20120;-95
2021/09/12 17:15:38;;;;;;;7.63;4.82;;;;;;;20.76;61.65;92668.53;4779936;29;20142;-94
2021/09/12 17:18:11;;;;;;;10.60;4.35;;;;;;;20.51;62.42;92654.63;4905330;29;20043;-94
2021/09/12 17:20:40;;;;;;;7.93;4.97;;;;;;;20.42;62.35;92659.31;4971045;28;20051;-96
2021/09/12 17:23:19;;;;;;;9.55;5.28;;;;;;;20.28;62.73;92657.09;5016169;28;20033;-93
2021/09/12 17:25:47;;;;;;;8.50;5.32;;;;;;;20.25;62.85;92665.00;5004105;28;20038;-95
2021/09/12 17:28:14;;;;;;;9.32;5.80;;;;;;;20.05;63.12;92658.78;5016321;28;20033;-93
2021/09/12 17:30:44;;;;;;;6.57;4.35;;;;;;;20.22;63.27;92697.56;5013591;28;20474;-92
2021/09/12 17:33:13;;;;;;;6.57;4.57;;;;;;;19.87;63.27;92669.72;5029809;28;20666;-93
2021/09/12 17:35:39;;;;;;;12.73;5.93;;;;;;;19.79;63.32;92665.31;5020522;28;20029;-94
2021/09/12 17:38:34;;;;;;;8.82;5.15;;;;;;;19.87;63.58;92693.63;5013429;28;20033;-94